createdAt,value
2022-08-11T00:02:05.557Z,99869.94
2022-08-11T00:07:20.331Z,99881.13
2022-08-11T00:12:23.588Z,99870.66
2022-08-11T00:17:30.331Z,99871.94
2022-08-11T00:22:39.158Z,99878.78
2022-08-11T00:27:43.717Z,99885.00
2022-08-11T00:32:56.236Z,99885.16
2022-08-11T00:38:01.600Z,99885.63
2022-08-11T00:43:20.751Z,99888.13
2022-08-11T00:48:29.461Z,99895.03
2022-08-11T00:53:46.231Z,99891.63
2022-08-11T00:59:34.152Z,99884.50
2022-08-11T01:05:10.144Z,99880.47
2022-08-11T01:10:43.149Z,99885.16
2022-08-11T01:16:05.189Z,99884.69
2022-08-11T01:21:55.215Z,99885.75
2022-08-11T01:27:37.730Z,99899.00
2022-08-11T01:33:14.495Z,99888.75
2022-08-11T01:39:02.235Z,99889.09
2022-08-11T01:44:36.685Z,99890.50
2022-08-11T01:50:08.589Z,99887.16
2022-08-11T01:55:19.237Z,99883.50
2022-08-11T02:00:30.973Z,99878.53
2022-08-11T02:06:01.278Z,99879.22
2022-08-11T02:11:35.641Z,99874.88
2022-08-11T02:17:00.130Z,99874.63
2022-08-11T02:22:27.410Z,99873.50
2022-08-11T02:27:40.999Z,99870.50
2022-08-11T02:33:10.066Z,99865.66
2022-08-11T02:38:20.088Z,99871.63
2022-08-11T02:43:31.215Z,99872.78
2022-08-11T02:49:17.352Z,99878.44
2022-08-11T02:54:28.269Z,99875.06
2022-08-11T02:59:53.464Z,99882.63
2022-08-11T03:05:17.655Z,99882.84
2022-08-11T03:10:25.401Z,99890.56
2022-08-11T03:16:01.303Z,99889.28
2022-08-11T03:21:11.359Z,99891.44
2022-08-11T03:26:27.067Z,99898.47
2022-08-11T03:31:36.328Z,99901.00
2022-08-11T03:37:16.664Z,99887.00
2022-08-11T03:42:28.129Z,99886.41
2022-08-11T03:48:07.203Z,99889.97
2022-08-11T03:53:17.832Z,99888.97
2022-08-11T03:58:42.003Z,99891.50
2022-08-11T04:04:19.812Z,99884.22
2022-08-11T04:09:55.778Z,99882.56
2022-08-11T04:15:32.153Z,99876.88
2022-08-11T04:20:52.948Z,99876.97
2022-08-11T04:26:22.451Z,99876.34
2022-08-11T04:31:51.856Z,99872.03
2022-08-11T04:37:35.771Z,99877.00
2022-08-11T04:43:23.569Z,99883.22
2022-08-11T04:49:11.116Z,99871.75
2022-08-11T04:54:45.504Z,99872.00
2022-08-11T05:00:24.501Z,99869.66
2022-08-11T05:05:56.212Z,99876.16
2022-08-11T05:11:12.995Z,99863.44
2022-08-11T05:16:37.978Z,99873.56
2022-08-11T05:22:04.614Z,99877.59
2022-08-11T05:27:27.930Z,99892.03
2022-08-11T05:32:59.383Z,99881.47
2022-08-11T05:38:28.420Z,99885.31
2022-08-11T05:44:19.933Z,99888.56
2022-08-11T05:49:31.792Z,99885.44
2022-08-11T05:54:54.592Z,99893.03
2022-08-11T06:00:02.260Z,99893.56
2022-08-11T06:05:26.543Z,99887.16
2022-08-11T06:10:34.411Z,99891.81
2022-08-11T06:15:46.775Z,99892.38
2022-08-11T06:20:51.441Z,99879.63
2022-08-11T06:25:56.319Z,99887.69
2022-08-11T06:31:01.189Z,99894.66
2022-08-11T06:36:07.901Z,99889.88
2022-08-11T06:41:33.532Z,99893.66
2022-08-11T06:46:39.157Z,99900.47
2022-08-11T06:51:42.567Z,99900.94
2022-08-11T06:57:28.910Z,99893.03
2022-08-11T07:02:33.872Z,99901.72
2022-08-11T07:08:34.322Z,99890.84
2022-08-11T07:13:58.036Z,99896.97
2022-08-11T07:19:21.840Z,99896.19
2022-08-11T07:24:58.735Z,99890.38
2022-08-11T07:30:10.612Z,99900.41
2022-08-11T07:35:17.492Z,99889.88
2022-08-11T07:40:23.594Z,99898.78
2022-08-11T07:45:47.136Z,99894.47
2022-08-11T07:51:08.042Z,99884.66
2022-08-11T07:56:17.373Z,99894.50
2022-08-11T08:01:45.012Z,99895.44
2022-08-11T08:07:06.312Z,99887.66
2022-08-11T08:12:28.037Z,99884.88
2022-08-11T08:18:25.413Z,99882.66
2022-08-11T08:23:15.759Z,99872.09
2022-08-11T08:28:21.967Z,99872.16
2022-08-11T08:33:30.431Z,99868.53
2022-08-11T08:38:33.589Z,99872.13
2022-08-11T08:43:49.068Z,99868.72
2022-08-11T08:48:54.476Z,99853.13
2022-08-11T08:54:04.743Z,99843.94
2022-08-11T08:59:08.921Z,99842.94
2022-08-11T09:04:18.955Z,99852.47
2022-08-11T09:09:24.660Z,99846.16
2022-08-11T09:14:47.439Z,99839.81
2022-08-11T09:19:58.744Z,99843.75
2022-08-11T09:25:19.268Z,99844.56
2022-08-11T09:30:22.591Z,99832.22
2022-08-11T09:35:29.117Z,99829.22
2022-08-11T09:40:33.666Z,99831.50
2022-08-11T09:45:40.360Z,99830.06
2022-08-11T09:50:47.003Z,99818.50
2022-08-11T09:55:51.972Z,99810.91
2022-08-11T10:01:02.241Z,99818.81
2022-08-11T10:06:33.059Z,99829.91
2022-08-11T10:11:39.613Z,99821.03
2022-08-11T10:16:43.460Z,99817.34
2022-08-11T10:22:12.071Z,99800.38
2022-08-11T10:27:16.184Z,99800.31
2022-08-11T10:32:57.880Z,99799.03
2022-08-11T10:38:08.253Z,99808.94
2022-08-11T10:44:01.602Z,99785.69
2022-08-11T10:48:42.506Z,99790.19
2022-08-11T10:54:06.739Z,99797.69
2022-08-11T10:59:15.594Z,99778.38
2022-08-11T11:04:19.944Z,99773.13
2022-08-11T11:09:30.201Z,99768.59
2022-08-11T11:14:58.266Z,99755.75
2022-08-11T11:20:06.772Z,99758.44
2022-08-11T11:25:21.870Z,99754.94
2022-08-11T11:30:33.884Z,99750.72
2022-08-11T11:35:50.666Z,99742.91
2022-08-11T11:41:09.302Z,99729.66
2022-08-11T11:46:13.934Z,99730.22
2022-08-11T11:51:17.510Z,99741.22
2022-08-11T11:56:25.029Z,99726.22
2022-08-11T12:01:28.866Z,99723.47
2022-08-11T12:06:33.268Z,99715.56
2022-08-11T12:11:57.650Z,99718.94
2022-08-11T12:17:01.654Z,99723.84
2022-08-11T12:22:22.598Z,99712.88
2022-08-11T12:27:28.919Z,99711.06
2022-08-11T12:32:35.594Z,99698.56
2022-08-11T12:37:43.668Z,99696.34
2022-08-11T12:43:20.781Z,99684.44
2022-08-11T12:48:58.828Z,99701.59
2022-08-11T12:54:22.722Z,99682.72
2022-08-11T12:59:45.135Z,99681.09
2022-08-11T13:04:59.297Z,99657.75
2022-08-11T13:10:04.287Z,99672.00
2022-08-11T13:15:11.765Z,99661.03
2022-08-11T13:20:17.463Z,99656.91
2022-08-11T13:25:23.013Z,99649.41
2022-08-11T13:30:48.368Z,99638.50
2022-08-11T13:35:55.943Z,99628.28
2022-08-11T13:40:59.483Z,99634.31
2022-08-11T13:46:18.028Z,99632.91
2022-08-11T13:51:35.244Z,99633.78
2022-08-11T13:56:40.822Z,99626.34
2022-08-11T14:02:20.932Z,99617.06
2022-08-11T14:07:15.713Z,99619.25
2022-08-11T14:12:41.482Z,99615.41
2022-08-11T14:17:48.635Z,99599.25
2022-08-11T14:22:53.720Z,99608.69
2022-08-11T14:28:30.498Z,99593.94
2022-08-11T14:33:22.215Z,99592.47
2022-08-11T14:38:25.711Z,99591.09
2022-08-11T14:44:12.296Z,99594.50
2022-08-11T14:49:12.127Z,99585.91
2022-08-11T14:54:33.809Z,99591.94
2022-08-11T14:59:37.556Z,99612.13
2022-08-11T15:04:42.207Z,99591.47
2022-08-11T15:10:10.146Z,99581.06
2022-08-11T15:15:28.851Z,99575.50
2022-08-11T15:20:53.924Z,99566.34
2022-08-11T15:25:59.579Z,99573.72
2022-08-11T15:31:22.169Z,99568.97
2022-08-11T15:36:47.864Z,99567.78
2022-08-11T15:42:16.901Z,99562.63
2022-08-11T15:47:24.057Z,99555.66
2022-08-11T15:52:32.969Z,99565.97
2022-08-11T15:57:55.914Z,99561.03
2022-08-11T16:03:18.750Z,99558.34
2022-08-11T16:08:32.919Z,99565.63
2022-08-11T16:13:57.547Z,99557.97
2022-08-11T16:19:04.890Z,99540.75
2022-08-11T16:27:03.922Z,99551.22
2022-08-11T16:29:38.214Z,99541.56
2022-08-11T16:35:00.427Z,99534.56
2022-08-11T16:40:06.704Z,99533.00
2022-08-11T16:45:33.301Z,99536.63
2022-08-11T16:50:37.500Z,99536.50
2022-08-11T16:55:52.642Z,99539.59
2022-08-11T17:00:58.815Z,99538.16
2022-08-11T17:06:20.996Z,99542.28
2022-08-11T17:11:57.518Z,99540.81
2022-08-11T17:17:03.989Z,99536.69
2022-08-11T17:22:25.334Z,99539.50
2022-08-11T17:27:31.268Z,99542.34
2022-08-11T17:32:57.141Z,99540.53
2022-08-11T17:38:06.667Z,99539.44
2022-08-11T17:43:28.857Z,99546.72
2022-08-11T17:48:34.593Z,99538.72
2022-08-11T17:54:09.952Z,99544.09
2022-08-11T17:59:43.803Z,99549.06
2022-08-11T18:04:54.170Z,99549.59
2022-08-11T18:10:15.214Z,99559.97
2022-08-11T18:15:37.479Z,99557.75
2022-08-11T18:21:10.973Z,99564.84
2022-08-11T18:26:34.346Z,99571.63
2022-08-11T18:32:02.991Z,99570.44
2022-08-11T18:37:29.673Z,99569.34
2022-08-11T18:42:51.827Z,99571.84
2022-08-11T18:48:20.897Z,99582.16
2022-08-11T18:53:42.630Z,99590.31
2022-08-11T18:59:06.510Z,99586.75
2022-08-11T19:04:30.064Z,99589.00
2022-08-11T19:09:54.779Z,99574.63
2022-08-11T19:15:17.254Z,99573.69
2022-08-11T19:20:42.380Z,99578.94
2022-08-11T19:26:04.437Z,99583.31
2022-08-11T19:31:27.306Z,99579.47
2022-08-11T19:36:50.135Z,99589.59
2022-08-11T19:42:11.464Z,99593.69
2022-08-11T19:47:35.378Z,99590.59
2022-08-11T19:52:59.550Z,99586.41
2022-08-11T19:58:20.851Z,99586.63
2022-08-11T20:03:41.706Z,99597.56
2022-08-11T20:09:06.112Z,99605.41
2022-08-11T20:14:28.480Z,99605.97
2022-08-11T20:19:55.539Z,99612.19
2022-08-11T20:25:19.591Z,99610.50
2022-08-11T20:30:41.329Z,99602.25
2022-08-11T20:36:01.666Z,99597.19
2022-08-11T20:41:26.051Z,99610.38
2022-08-11T20:46:48.229Z,99606.97
2022-08-11T20:52:10.091Z,99612.63
2022-08-11T20:58:00.013Z,99613.47
2022-08-11T21:03:35.298Z,99619.16
2022-08-11T21:08:59.361Z,99624.75
2022-08-11T21:14:25.977Z,99623.69
2022-08-11T21:20:01.691Z,99623.44
2022-08-11T21:25:29.770Z,99623.19
2022-08-11T21:30:57.524Z,99639.41
2022-08-11T21:36:18.190Z,99642.06
2022-08-11T21:41:39.012Z,99643.63
2022-08-11T21:47:00.893Z,99646.66
2022-08-11T21:52:21.661Z,99645.41
2022-08-11T21:57:48.102Z,99642.72
2022-08-11T22:03:12.254Z,99649.06
2022-08-11T22:08:33.408Z,99652.72
2022-08-11T22:14:06.353Z,99651.88
2022-08-11T22:19:30.650Z,99639.03
2022-08-11T22:24:52.082Z,99641.47
2022-08-11T22:30:13.359Z,99644.72
2022-08-11T22:35:37.023Z,99645.25
2022-08-11T22:40:58.100Z,99641.97
2022-08-11T22:46:18.346Z,99640.50
2022-08-11T22:51:42.146Z,99647.28
2022-08-11T22:57:03.303Z,99639.81
2022-08-11T23:02:25.594Z,99648.50
2022-08-11T23:07:51.748Z,99646.50
2022-08-11T23:13:13.203Z,99644.38
2022-08-11T23:18:34.932Z,99643.91
2022-08-11T23:23:58.458Z,99643.47
2022-08-11T23:29:22.282Z,99642.47
2022-08-11T23:35:04.223Z,99642.31
2022-08-11T23:40:31.030Z,99644.41
2022-08-11T23:45:51.360Z,99645.59
2022-08-11T23:51:12.995Z,99634.59
2022-08-11T23:56:35.590Z,99630.00
